ASP836 KBOS-CYOW
Flight info
| Callsign | ASP836 |
|---|---|
| Flight time | 1h 8m |
| Altitude | 43000 |
| Route | HYLND7 HYLND DCT BUGSY DEANS4 |
| Aircraft | C700/M-SBDGHM1RWXY/LB2 |
Departure
| Time | 2026-05-05 13:31 |
|---|---|
| Airport | Boston Logan International Airport (KBOS) |
Arrival
| Time | 2026-05-05 14:40 |
|---|---|
| Airport | Ottawa Macdonald-Cartier International Airport (CYOW) |
| Time | Latitude | Longitude | Altitude | Speed | Heading |
|---|---|---|---|---|---|
| 2026-05-05 13:06 | 42.37459 | -71.02108 | 22 ft | 0 kts | 315° |
| 2026-05-05 13:27 | 42.37460 | -71.02109 | 20 ft | 1 kts | 315° |
| 2026-05-05 13:27 | 42.37479 | -71.02106 | 21 ft | 6 kts | 38° |
| 2026-05-05 13:27 | 42.37456 | -71.02039 | 20 ft | 11 kts | 136° |
| 2026-05-05 13:27 | 42.37394 | -71.01957 | 20 ft | 14 kts | 135° |
| 2026-05-05 13:28 | 42.37354 | -71.01859 | 20 ft | 11 kts | 49° |
| 2026-05-05 13:28 | 42.37398 | -71.01760 | 20 ft | 14 kts | 106° |
| 2026-05-05 13:28 | 42.37325 | -71.01655 | 20 ft | 17 kts | 136° |
| 2026-05-05 13:28 | 42.37234 | -71.01536 | 20 ft | 20 kts | 136° |
| 2026-05-05 13:29 | 42.37130 | -71.01397 | 20 ft | 22 kts | 136° |
| 2026-05-05 13:29 | 42.37014 | -71.01241 | 21 ft | 25 kts | 135° |
| 2026-05-05 13:29 | 42.36887 | -71.01070 | 20 ft | 27 kts | 135° |
| 2026-05-05 13:29 | 42.36860 | -71.01034 | 20 ft | 0 kts | 133° |
| 2026-05-05 13:30 | 42.36852 | -71.01023 | 20 ft | 6 kts | 134° |
| 2026-05-05 13:30 | 42.36804 | -71.00961 | 20 ft | 12 kts | 156° |
| 2026-05-05 13:30 | 42.36762 | -71.00970 | 20 ft | 0 kts | 199° |
| 2026-05-05 13:30 | 42.36733 | -71.00984 | 20 ft | 26 kts | 200° |
| 2026-05-05 13:31 | 42.36236 | -71.01229 | 49 ft | 122 kts | 201° |
| 2026-05-05 13:31 | 42.35314 | -71.01674 | 890 ft | 152 kts | 202° |
| 2026-05-05 13:31 | 42.34234 | -71.02139 | 2186 ft | 180 kts | 200° |
| 2026-05-05 13:31 | 42.32798 | -71.01927 | 3322 ft | 238 kts | 167° |
| 2026-05-05 13:32 | 42.31392 | -71.00515 | 4370 ft | 270 kts | 134° |
| 2026-05-05 13:32 | 42.30666 | -70.98089 | 5419 ft | 292 kts | 100° |
| 2026-05-05 13:32 | 42.30712 | -70.95373 | 6491 ft | 287 kts | 88° |
| 2026-05-05 13:32 | 42.31032 | -70.92722 | 7476 ft | 287 kts | 76° |
| 2026-05-05 13:33 | 42.31722 | -70.90182 | 8559 ft | 292 kts | 67° |
| 2026-05-05 13:33 | 42.32475 | -70.87532 | 9770 ft | 312 kts | 74° |
| 2026-05-05 13:33 | 42.32950 | -70.84606 | 10999 ft | 324 kts | 83° |
| 2026-05-05 13:33 | 42.33394 | -70.81579 | 12305 ft | 335 kts | 71° |
| 2026-05-05 13:34 | 42.34416 | -70.78728 | 13712 ft | 339 kts | 57° |
| 2026-05-05 13:34 | 42.35876 | -70.76274 | 14988 ft | 342 kts | 43° |
| 2026-05-05 13:34 | 42.37780 | -70.74284 | 16368 ft | 350 kts | 28° |
| 2026-05-05 13:34 | 42.40045 | -70.72929 | 17866 ft | 353 kts | 14° |
| 2026-05-05 13:35 | 42.42442 | -70.72221 | 19243 ft | 352 kts | 1° |
| 2026-05-05 13:35 | 42.44875 | -70.72199 | 20639 ft | 347 kts | 349° |
| 2026-05-05 13:35 | 42.47189 | -70.72804 | 22084 ft | 340 kts | 338° |
| 2026-05-05 13:35 | 42.49349 | -70.73977 | 23572 ft | 331 kts | 329° |
| 2026-05-05 13:36 | 42.51386 | -70.75370 | 24842 ft | 323 kts | 325° |
| 2026-05-05 13:36 | 42.53160 | -70.77130 | 26113 ft | 311 kts | 314° |
| 2026-05-05 13:36 | 42.54610 | -70.79227 | 27375 ft | 299 kts | 304° |
| 2026-05-05 13:36 | 42.55734 | -70.81526 | 28596 ft | 288 kts | 298° |
| 2026-05-05 13:37 | 42.56838 | -70.83810 | 29420 ft | 297 kts | 301° |
| 2026-05-05 13:37 | 42.58056 | -70.86227 | 29497 ft | 324 kts | 301° |
| 2026-05-05 13:37 | 42.59361 | -70.88877 | 29540 ft | 351 kts | 300° |
| 2026-05-05 13:37 | 42.60740 | -70.91759 | 29605 ft | 376 kts | 300° |
| 2026-05-05 13:38 | 42.62230 | -70.94817 | 29737 ft | 397 kts | 301° |
| 2026-05-05 13:38 | 42.63779 | -70.97943 | 30492 ft | 399 kts | 301° |
| 2026-05-05 13:38 | 42.65320 | -71.01103 | 31157 ft | 403 kts | 300° |
| 2026-05-05 13:38 | 42.66842 | -71.04267 | 31786 ft | 408 kts | 300° |
| 2026-05-05 13:39 | 42.68407 | -71.07504 | 32403 ft | 412 kts | 300° |
| 2026-05-05 13:39 | 42.69994 | -71.10767 | 32988 ft | 416 kts | 300° |
| 2026-05-05 13:39 | 42.71587 | -71.14049 | 33754 ft | 414 kts | 300° |
| 2026-05-05 13:39 | 42.73164 | -71.17315 | 34490 ft | 412 kts | 300° |
| 2026-05-05 13:40 | 42.74751 | -71.20611 | 34643 ft | 424 kts | 300° |
| 2026-05-05 13:40 | 42.76370 | -71.23970 | 35093 ft | 427 kts | 300° |
| 2026-05-05 13:40 | 42.78074 | -71.27313 | 35419 ft | 433 kts | 305° |
| 2026-05-05 13:40 | 42.80099 | -71.30355 | 36049 ft | 433 kts | 311° |
| 2026-05-05 13:41 | 42.82188 | -71.33276 | 36657 ft | 430 kts | 311° |
| 2026-05-05 13:41 | 42.83565 | -71.35217 | 37026 ft | 428 kts | 310° |
| 2026-05-05 13:41 | 42.85627 | -71.38133 | 37549 ft | 426 kts | 310° |
| 2026-05-05 13:41 | 42.87683 | -71.41032 | 38034 ft | 424 kts | 311° |
| 2026-05-05 13:42 | 42.89729 | -71.43913 | 38492 ft | 422 kts | 310° |
| 2026-05-05 13:42 | 42.91762 | -71.46780 | 38845 ft | 420 kts | 310° |
| 2026-05-05 13:42 | 42.93796 | -71.49663 | 39047 ft | 422 kts | 310° |
| 2026-05-05 13:42 | 42.95833 | -71.52548 | 39275 ft | 423 kts | 310° |
| 2026-05-05 13:43 | 42.97875 | -71.55438 | 39500 ft | 424 kts | 310° |
| 2026-05-05 13:43 | 42.99922 | -71.58339 | 39741 ft | 424 kts | 310° |
| 2026-05-05 13:43 | 43.01969 | -71.61246 | 39958 ft | 425 kts | 310° |
| 2026-05-05 13:43 | 43.04020 | -71.64163 | 40163 ft | 426 kts | 310° |
| 2026-05-05 13:44 | 43.06076 | -71.67088 | 40357 ft | 427 kts | 310° |
| 2026-05-05 13:44 | 43.08141 | -71.70027 | 40550 ft | 428 kts | 310° |
| 2026-05-05 13:44 | 43.10207 | -71.72972 | 40752 ft | 429 kts | 310° |
| 2026-05-05 13:44 | 43.12279 | -71.75930 | 40948 ft | 431 kts | 310° |
| 2026-05-05 13:45 | 43.14355 | -71.78893 | 41155 ft | 431 kts | 310° |
| 2026-05-05 13:45 | 43.16430 | -71.81861 | 41370 ft | 432 kts | 309° |
| 2026-05-05 13:45 | 43.18512 | -71.84842 | 41567 ft | 433 kts | 309° |
| 2026-05-05 13:45 | 43.20595 | -71.87827 | 41746 ft | 434 kts | 309° |
| 2026-05-05 13:46 | 43.22685 | -71.90825 | 41916 ft | 435 kts | 309° |
| 2026-05-05 13:46 | 43.24780 | -71.93834 | 42083 ft | 437 kts | 309° |
| 2026-05-05 13:46 | 43.26880 | -71.96852 | 42258 ft | 437 kts | 309° |
| 2026-05-05 13:46 | 43.28979 | -71.99873 | 42441 ft | 438 kts | 309° |
| 2026-05-05 13:47 | 43.31085 | -72.02906 | 42623 ft | 439 kts | 309° |
| 2026-05-05 13:47 | 43.33159 | -72.05896 | 42813 ft | 439 kts | 309° |
| 2026-05-05 13:47 | 43.37408 | -72.12039 | 42838 ft | 448 kts | 309° |
| 2026-05-05 13:48 | 43.41744 | -72.18313 | 42850 ft | 456 kts | 309° |
| 2026-05-05 13:48 | 43.46150 | -72.24707 | 42858 ft | 465 kts | 309° |
| 2026-05-05 13:49 | 43.50619 | -72.31204 | 42855 ft | 467 kts | 309° |
| 2026-05-05 13:49 | 43.55057 | -72.37672 | 42846 ft | 462 kts | 309° |
| 2026-05-05 13:50 | 43.59457 | -72.44101 | 42817 ft | 459 kts | 309° |
| 2026-05-05 13:50 | 43.63841 | -72.50522 | 42831 ft | 461 kts | 309° |
| 2026-05-05 13:51 | 43.68249 | -72.56993 | 42828 ft | 464 kts | 309° |
| 2026-05-05 13:51 | 43.72678 | -72.63502 | 42830 ft | 464 kts | 309° |
| 2026-05-05 13:52 | 43.77079 | -72.69994 | 42815 ft | 461 kts | 309° |
| 2026-05-05 13:52 | 43.81458 | -72.76465 | 42808 ft | 459 kts | 309° |
| 2026-05-05 13:53 | 43.85818 | -72.82924 | 42799 ft | 459 kts | 309° |
| 2026-05-05 13:53 | 43.90149 | -72.89353 | 42809 ft | 459 kts | 309° |
| 2026-05-05 13:54 | 43.94490 | -72.95819 | 42792 ft | 458 kts | 309° |
| 2026-05-05 13:54 | 43.98829 | -73.02279 | 42786 ft | 457 kts | 309° |
| 2026-05-05 13:55 | 44.03149 | -73.08745 | 42765 ft | 457 kts | 309° |
| 2026-05-05 13:55 | 44.07483 | -73.15236 | 42784 ft | 458 kts | 308° |
| 2026-05-05 13:56 | 44.11827 | -73.21760 | 42782 ft | 460 kts | 308° |
| 2026-05-05 13:56 | 44.16189 | -73.28327 | 42210 ft | 464 kts | 308° |
| 2026-05-05 13:57 | 44.18370 | -73.31612 | 41599 ft | 458 kts | 308° |
| 2026-05-05 13:57 | 44.20506 | -73.34830 | 41012 ft | 447 kts | 308° |
| 2026-05-05 13:57 | 44.22584 | -73.37970 | 40446 ft | 435 kts | 307° |
| 2026-05-05 13:57 | 44.24606 | -73.41032 | 39878 ft | 423 kts | 307° |
| 2026-05-05 13:58 | 44.26575 | -73.44016 | 39346 ft | 413 kts | 307° |
| 2026-05-05 13:58 | 44.28506 | -73.46944 | 38807 ft | 407 kts | 306° |
| 2026-05-05 13:58 | 44.30408 | -73.49833 | 38247 ft | 403 kts | 306° |
| 2026-05-05 13:58 | 44.32294 | -73.52702 | 37695 ft | 399 kts | 306° |
| 2026-05-05 13:59 | 44.36075 | -73.58467 | 36612 ft | 415 kts | 306° |
| 2026-05-05 13:59 | 44.38046 | -73.61472 | 36041 ft | 423 kts | 307° |
| 2026-05-05 14:00 | 44.42060 | -73.67572 | 34885 ft | 425 kts | 306° |
| 2026-05-05 14:00 | 44.44040 | -73.70620 | 34329 ft | 422 kts | 306° |
| 2026-05-05 14:00 | 44.46017 | -73.73656 | 33771 ft | 421 kts | 306° |
| 2026-05-05 14:00 | 44.47989 | -73.76664 | 33187 ft | 419 kts | 306° |
| 2026-05-05 14:01 | 44.49964 | -73.79689 | 32630 ft | 422 kts | 306° |
| 2026-05-05 14:01 | 44.51949 | -73.82746 | 32065 ft | 427 kts | 306° |
| 2026-05-05 14:01 | 44.53961 | -73.85851 | 31440 ft | 433 kts | 306° |
| 2026-05-05 14:01 | 44.55991 | -73.88978 | 30916 ft | 435 kts | 306° |
| 2026-05-05 14:02 | 44.58036 | -73.92113 | 30329 ft | 436 kts | 306° |
| 2026-05-05 14:02 | 44.60084 | -73.95265 | 29743 ft | 437 kts | 306° |
| 2026-05-05 14:02 | 44.62119 | -73.98415 | 29137 ft | 434 kts | 305° |
| 2026-05-05 14:02 | 44.64137 | -74.01536 | 28568 ft | 428 kts | 306° |
| 2026-05-05 14:03 | 44.66128 | -74.04608 | 28022 ft | 424 kts | 305° |
| 2026-05-05 14:03 | 44.68075 | -74.07627 | 27478 ft | 421 kts | 305° |
| 2026-05-05 14:03 | 44.70033 | -74.10674 | 26933 ft | 419 kts | 304° |
| 2026-05-05 14:03 | 44.71826 | -74.13854 | 26373 ft | 411 kts | 298° |
| 2026-05-05 14:04 | 44.73291 | -74.17268 | 25842 ft | 403 kts | 291° |
| 2026-05-05 14:04 | 44.74483 | -74.20805 | 25311 ft | 397 kts | 288° |
| 2026-05-05 14:04 | 44.75646 | -74.24315 | 24791 ft | 394 kts | 289° |
| 2026-05-05 14:04 | 44.76809 | -74.27791 | 24281 ft | 392 kts | 289° |
| 2026-05-05 14:05 | 44.77959 | -74.31255 | 23773 ft | 389 kts | 288° |
| 2026-05-05 14:05 | 44.79094 | -74.34697 | 23262 ft | 387 kts | 288° |
| 2026-05-05 14:05 | 44.80224 | -74.38122 | 22717 ft | 384 kts | 288° |
| 2026-05-05 14:05 | 44.81348 | -74.41517 | 22214 ft | 380 kts | 288° |
| 2026-05-05 14:06 | 44.82455 | -74.44871 | 21721 ft | 376 kts | 288° |
| 2026-05-05 14:06 | 44.83548 | -74.48196 | 21229 ft | 373 kts | 288° |
| 2026-05-05 14:06 | 44.84634 | -74.51501 | 20741 ft | 370 kts | 288° |
| 2026-05-05 14:06 | 44.85713 | -74.54784 | 20256 ft | 368 kts | 288° |
| 2026-05-05 14:07 | 44.86786 | -74.58053 | 19771 ft | 366 kts | 288° |
| 2026-05-05 14:07 | 44.87851 | -74.61304 | 19290 ft | 365 kts | 288° |
| 2026-05-05 14:07 | 44.88909 | -74.64543 | 18807 ft | 362 kts | 288° |
| 2026-05-05 14:07 | 44.89769 | -74.67827 | 18334 ft | 353 kts | 281° |
| 2026-05-05 14:08 | 44.90302 | -74.71180 | 17865 ft | 347 kts | 274° |
| 2026-05-05 14:08 | 44.90519 | -74.74495 | 17395 ft | 341 kts | 268° |
| 2026-05-05 14:08 | 44.90436 | -74.77829 | 17211 ft | 330 kts | 262° |
| 2026-05-05 14:08 | 44.90088 | -74.80996 | 16905 ft | 335 kts | 256° |
| 2026-05-05 14:09 | 44.89571 | -74.84220 | 16460 ft | 337 kts | 255° |
| 2026-05-05 14:09 | 44.89078 | -74.87433 | 16019 ft | 332 kts | 256° |
| 2026-05-05 14:09 | 44.88593 | -74.90599 | 15592 ft | 328 kts | 255° |
| 2026-05-05 14:09 | 44.88162 | -74.93738 | 15164 ft | 325 kts | 259° |
| 2026-05-05 14:10 | 44.88025 | -74.96923 | 14739 ft | 326 kts | 266° |
| 2026-05-05 14:10 | 44.88192 | -75.00121 | 14346 ft | 328 kts | 273° |
| 2026-05-05 14:10 | 44.88659 | -75.03292 | 13906 ft | 331 kts | 279° |
| 2026-05-05 14:10 | 44.89212 | -75.06432 | 13468 ft | 329 kts | 278° |
| 2026-05-05 14:11 | 44.89743 | -75.09553 | 13005 ft | 326 kts | 278° |
| 2026-05-05 14:11 | 44.90268 | -75.12629 | 12580 ft | 316 kts | 278° |
| 2026-05-05 14:11 | 44.90775 | -75.15553 | 12187 ft | 297 kts | 278° |
| 2026-05-05 14:11 | 44.91246 | -75.18286 | 11829 ft | 277 kts | 277° |
| 2026-05-05 14:12 | 44.91682 | -75.20849 | 11488 ft | 262 kts | 277° |
| 2026-05-05 14:12 | 44.92095 | -75.23292 | 11156 ft | 252 kts | 277° |
| 2026-05-05 14:12 | 44.92500 | -75.25684 | 10837 ft | 250 kts | 277° |
| 2026-05-05 14:12 | 44.92905 | -75.28083 | 10509 ft | 253 kts | 277° |
| 2026-05-05 14:13 | 44.93318 | -75.30512 | 10171 ft | 256 kts | 277° |
| 2026-05-05 14:13 | 44.93898 | -75.32918 | 9827 ft | 262 kts | 286° |
| 2026-05-05 14:13 | 44.94782 | -75.35189 | 9478 ft | 266 kts | 295° |
| 2026-05-05 14:13 | 44.95939 | -75.37245 | 9112 ft | 269 kts | 304° |
| 2026-05-05 14:14 | 44.97422 | -75.38907 | 8707 ft | 283 kts | 324° |
| 2026-05-05 14:14 | 44.99339 | -75.39713 | 8219 ft | 289 kts | 339° |
| 2026-05-05 14:14 | 45.01269 | -75.40266 | 7927 ft | 285 kts | 340° |
| 2026-05-05 14:14 | 45.03219 | -75.40809 | 7687 ft | 287 kts | 340° |
| 2026-05-05 14:15 | 45.05186 | -75.41376 | 7437 ft | 290 kts | 340° |
| 2026-05-05 14:15 | 45.07176 | -75.41956 | 7192 ft | 293 kts | 340° |
| 2026-05-05 14:15 | 45.09180 | -75.42535 | 6951 ft | 295 kts | 340° |
| 2026-05-05 14:15 | 45.11185 | -75.43113 | 6758 ft | 291 kts | 340° |
| 2026-05-05 14:16 | 45.13162 | -75.43679 | 6504 ft | 291 kts | 340° |
| 2026-05-05 14:16 | 45.15162 | -75.44256 | 6126 ft | 293 kts | 340° |
| 2026-05-05 14:16 | 45.17136 | -75.44839 | 5722 ft | 287 kts | 340° |
| 2026-05-05 14:16 | 45.19071 | -75.45396 | 5340 ft | 280 kts | 340° |
| 2026-05-05 14:17 | 45.20950 | -75.45932 | 5015 ft | 270 kts | 339° |
| 2026-05-05 14:17 | 45.22735 | -75.46445 | 4998 ft | 255 kts | 339° |
| 2026-05-05 14:17 | 45.24480 | -75.46968 | 4836 ft | 261 kts | 339° |
| 2026-05-05 14:17 | 45.26275 | -75.47504 | 4529 ft | 265 kts | 340° |
| 2026-05-05 14:18 | 45.28048 | -75.48005 | 4146 ft | 254 kts | 341° |
| 2026-05-05 14:18 | 45.29761 | -75.48494 | 3683 ft | 248 kts | 340° |
| 2026-05-05 14:18 | 45.31412 | -75.48983 | 3187 ft | 244 kts | 340° |
| 2026-05-05 14:18 | 45.33062 | -75.49434 | 2827 ft | 232 kts | 339° |
| 2026-05-05 14:19 | 45.34337 | -75.50378 | 2581 ft | 189 kts | 311° |
| 2026-05-05 14:19 | 45.35178 | -75.51627 | 2343 ft | 163 kts | 294° |
| 2026-05-05 14:19 | 45.35688 | -75.52994 | 2130 ft | 148 kts | 279° |
| 2026-05-05 14:19 | 45.35922 | -75.54362 | 1958 ft | 144 kts | 270° |
| 2026-05-05 14:20 | 45.35930 | -75.55782 | 1772 ft | 141 kts | 258° |
| 2026-05-05 14:20 | 45.35735 | -75.57039 | 1624 ft | 118 kts | 245° |
| 2026-05-05 14:20 | 45.35398 | -75.58095 | 1425 ft | 118 kts | 237° |
| 2026-05-05 14:20 | 45.34941 | -75.59095 | 1262 ft | 123 kts | 231° |
| 2026-05-05 14:21 | 45.34470 | -75.60138 | 1106 ft | 127 kts | 235° |
| 2026-05-05 14:21 | 45.34005 | -75.61178 | 901 ft | 117 kts | 234° |
| 2026-05-05 14:21 | 45.33583 | -75.62157 | 813 ft | 118 kts | 234° |
| 2026-05-05 14:21 | 45.33123 | -75.63147 | 664 ft | 118 kts | 233° |
| 2026-05-05 14:22 | 45.32852 | -75.64276 | 505 ft | 127 kts | 230° |
| 2026-05-05 14:22 | 45.32287 | -75.65331 | 992 ft | 154 kts | 231° |
| 2026-05-05 14:22 | 45.31581 | -75.66696 | 1871 ft | 191 kts | 232° |
| 2026-05-05 14:22 | 45.30756 | -75.68366 | 2888 ft | 213 kts | 237° |
| 2026-05-05 14:23 | 45.29887 | -75.70193 | 3005 ft | 231 kts | 236° |
| 2026-05-05 14:23 | 45.28990 | -75.72053 | 3028 ft | 229 kts | 236° |
| 2026-05-05 14:23 | 45.28082 | -75.73946 | 4274 ft | 227 kts | 236° |
| 2026-05-05 14:23 | 45.27127 | -75.75933 | 5021 ft | 255 kts | 236° |
| 2026-05-05 14:24 | 45.26036 | -75.77833 | 4984 ft | 244 kts | 220° |
| 2026-05-05 14:24 | 45.24517 | -75.78814 | 4991 ft | 239 kts | 202° |
| 2026-05-05 14:24 | 45.22878 | -75.79174 | 4987 ft | 244 kts | 185° |
| 2026-05-05 14:24 | 45.21213 | -75.78541 | 4990 ft | 262 kts | 162° |
| 2026-05-05 14:25 | 45.19773 | -75.76813 | 4991 ft | 285 kts | 135° |
| 2026-05-05 14:25 | 45.19004 | -75.74157 | 4990 ft | 303 kts | 103° |
| 2026-05-05 14:25 | 45.19252 | -75.71168 | 4991 ft | 312 kts | 70° |
| 2026-05-05 14:25 | 45.20345 | -75.68515 | 5009 ft | 312 kts | 55° |
| 2026-05-05 14:26 | 45.21613 | -75.66070 | 5006 ft | 301 kts | 52° |
| 2026-05-05 14:26 | 45.22832 | -75.63738 | 4992 ft | 289 kts | 53° |
| 2026-05-05 14:26 | 45.23970 | -75.61411 | 4964 ft | 288 kts | 55° |
| 2026-05-05 14:26 | 45.25055 | -75.59026 | 4979 ft | 287 kts | 58° |
| 2026-05-05 14:27 | 45.26105 | -75.56660 | 4908 ft | 281 kts | 57° |
| 2026-05-05 14:27 | 45.27162 | -75.54332 | 4529 ft | 280 kts | 57° |
| 2026-05-05 14:27 | 45.28219 | -75.52005 | 4073 ft | 281 kts | 56° |
| 2026-05-05 14:27 | 45.29553 | -75.50073 | 3573 ft | 271 kts | 27° |
| 2026-05-05 14:28 | 45.31267 | -75.49231 | 3127 ft | 253 kts | 0° |
| 2026-05-05 14:28 | 45.32931 | -75.49438 | 2832 ft | 229 kts | 336° |
| 2026-05-05 14:28 | 45.34265 | -75.50373 | 2598 ft | 198 kts | 313° |
| 2026-05-05 14:28 | 45.35161 | -75.51663 | 2345 ft | 173 kts | 295° |
| 2026-05-05 14:29 | 45.35693 | -75.53088 | 2114 ft | 155 kts | 280° |
| 2026-05-05 14:29 | 45.35925 | -75.54531 | 1930 ft | 148 kts | 269° |
| 2026-05-05 14:29 | 45.35908 | -75.55979 | 1733 ft | 144 kts | 256° |
| 2026-05-05 14:29 | 45.35671 | -75.57268 | 1580 ft | 121 kts | 243° |
| 2026-05-05 14:30 | 45.35318 | -75.58281 | 1398 ft | 115 kts | 233° |
| 2026-05-05 14:30 | 45.34868 | -75.59254 | 1247 ft | 122 kts | 232° |
| 2026-05-05 14:30 | 45.34397 | -75.60286 | 1076 ft | 125 kts | 234° |
| 2026-05-05 14:30 | 45.33931 | -75.61359 | 899 ft | 127 kts | 236° |
| 2026-05-05 14:31 | 45.33467 | -75.62403 | 754 ft | 124 kts | 231° |
| 2026-05-05 14:31 | 45.32996 | -75.63444 | 628 ft | 131 kts | 233° |
| 2026-05-05 14:31 | 45.32497 | -75.64530 | 420 ft | 128 kts | 232° |
| 2026-05-05 14:31 | 45.32083 | -75.65459 | 384 ft | 110 kts | 233° |
| 2026-05-05 14:32 | 45.31611 | -75.66518 | 762 ft | 142 kts | 233° |
| 2026-05-05 14:32 | 45.30974 | -75.67846 | 1352 ft | 179 kts | 233° |
| 2026-05-05 14:32 | 45.30301 | -75.69328 | 2777 ft | 173 kts | 238° |
| 2026-05-05 14:32 | 45.29865 | -75.70281 | 4012 ft | 176 kts | 237° |
| 2026-05-05 14:33 | 45.29004 | -75.71833 | 4971 ft | 230 kts | 223° |
| 2026-05-05 14:33 | 45.27450 | -75.72714 | 4995 ft | 254 kts | 190° |
| 2026-05-05 14:33 | 45.25707 | -75.72080 | 4985 ft | 271 kts | 157° |
| 2026-05-05 14:33 | 45.24425 | -75.70048 | 4992 ft | 288 kts | 123° |
| 2026-05-05 14:34 | 45.24055 | -75.67238 | 4992 ft | 293 kts | 92° |
| 2026-05-05 14:34 | 45.24279 | -75.64395 | 4992 ft | 287 kts | 86° |
| 2026-05-05 14:34 | 45.24531 | -75.61605 | 4965 ft | 286 kts | 84° |
| 2026-05-05 14:34 | 45.25143 | -75.58861 | 4707 ft | 296 kts | 66° |
| 2026-05-05 14:35 | 45.26201 | -75.56375 | 4462 ft | 291 kts | 56° |
| 2026-05-05 14:35 | 45.27315 | -75.54020 | 4197 ft | 284 kts | 56° |
| 2026-05-05 14:35 | 45.28376 | -75.51707 | 3886 ft | 275 kts | 55° |
| 2026-05-05 14:35 | 45.29741 | -75.49942 | 3463 ft | 261 kts | 24° |
| 2026-05-05 14:36 | 45.31405 | -75.49220 | 3092 ft | 242 kts | 357° |
| 2026-05-05 14:36 | 45.32995 | -75.49472 | 2876 ft | 219 kts | 335° |
| 2026-05-05 14:36 | 45.34276 | -75.50389 | 2613 ft | 193 kts | 313° |
| 2026-05-05 14:36 | 45.35161 | -75.51665 | 2351 ft | 173 kts | 295° |
| 2026-05-05 14:37 | 45.35692 | -75.53133 | 2119 ft | 163 kts | 279° |
| 2026-05-05 14:37 | 45.35935 | -75.54670 | 1909 ft | 158 kts | 267° |
| 2026-05-05 14:37 | 45.35854 | -75.56158 | 1700 ft | 147 kts | 255° |
| 2026-05-05 14:37 | 45.35602 | -75.57518 | 1506 ft | 136 kts | 242° |
| 2026-05-05 14:38 | 45.35157 | -75.58632 | 1347 ft | 123 kts | 233° |
| 2026-05-05 14:38 | 45.34714 | -75.59616 | 1218 ft | 119 kts | 233° |
| 2026-05-05 14:38 | 45.34249 | -75.60629 | 1017 ft | 125 kts | 235° |
| 2026-05-05 14:38 | 45.33763 | -75.61689 | 831 ft | 129 kts | 235° |
| 2026-05-05 14:39 | 45.33303 | -75.62717 | 720 ft | 127 kts | 233° |
| 2026-05-05 14:39 | 45.32837 | -75.63763 | 570 ft | 124 kts | 233° |
| 2026-05-05 14:39 | 45.32376 | -75.64803 | 400 ft | 120 kts | 232° |
| 2026-05-05 14:39 | 45.32005 | -75.65623 | 371 ft | 75 kts | 238° |
| 2026-05-05 14:40 | 45.31808 | -75.66063 | 373 ft | 41 kts | 239° |
| 2026-05-05 14:40 | 45.31711 | -75.66292 | 375 ft | 10 kts | 277° |
| 2026-05-05 14:40 | 45.31761 | -75.66348 | 377 ft | 12 kts | 307° |
| 2026-05-05 14:40 | 45.31822 | -75.66460 | 374 ft | 15 kts | 315° |
| 2026-05-05 14:41 | 45.31883 | -75.66402 | 374 ft | 15 kts | 58° |
| 2026-05-05 14:41 | 45.31947 | -75.66260 | 374 ft | 19 kts | 57° |
| 2026-05-05 14:41 | 45.32027 | -75.66080 | 374 ft | 24 kts | 58° |
| 2026-05-05 14:41 | 45.32122 | -75.65870 | 374 ft | 26 kts | 57° |
| 2026-05-05 14:42 | 45.32208 | -75.65681 | 374 ft | 18 kts | 57° |
| 2026-05-05 14:42 | 45.32255 | -75.65594 | 374 ft | 8 kts | 20° |
| 2026-05-05 14:42 | 45.32311 | -75.65626 | 374 ft | 8 kts | 331° |
| 2026-05-05 14:42 | 45.32357 | -75.65573 | 374 ft | 10 kts | 58° |
| 2026-05-05 14:43 | 45.32392 | -75.65565 | 374 ft | 4 kts | 326° |
| 2026-05-05 14:43 | 45.32395 | -75.65568 | 374 ft | 0 kts | 325° |